Rusich-7 — UBUI — position and weather

sailwx.info

Track history (hours):
 
Tides and Currents Weather Stations Pressure Air Temp Water Temp Dewpoint Dewpoint Depression Visibility Wind Speed Wind Dir Waves Ship Positions

Rusich-7

Last reported at 2017-Nov-17 19:16 UTC. Time now 2017-Nov-22 07:35 UTC.
Position N 45°29' E 036°43'.

Length 128 m; draft 3.3 m.

Type: Cargo ship. MMSI: 273310950.

Date/timePositionNaut miles runAvg speedWind from/ knotsBaromVisibWave heightAir tempDewpointWater temp
2017-Nov-17 19:16N 45°29' E 036°43'2 9.1
2017-Nov-17 19:00N 45°27' E 036°42'5 9.5
2017-Nov-17 18:30N 45°22' E 036°40'4 7.6
2017-Nov-17 18:00N 45°20' E 036°36'5 9.6
2017-Nov-17 17:30N 45°18' E 036°29'4 7.5
2017-Nov-17 17:01N 45°15' E 036°28'4 7.7
2017-Nov-17 16:30N 45°11' E 036°29'0 0.1
2017-Nov-17 15:55N 45°11' E 036°29'0 0.0
2017-Nov-17 13:16N 45°11' E 036°29'0 0.0
2017-Nov-17 12:52N 45°11' E 036°29'0 0.0
2017-Nov-17 12:30N 45°11' E 036°29'0 0.0
2017-Nov-17 11:55N 45°11' E 036°29'0 0.0
2017-Nov-17 11:25N 45°11' E 036°29'0 0.0
2017-Nov-17 11:00N 45°11' E 036°29'0 0.0
2017-Nov-17 10:00N 45°11' E 036°29'0 0.0
2017-Nov-17 07:54N 45°11' E 036°29'0 0.0
2017-Nov-17 07:20N 45°11' E 036°29'0 0.0
2017-Nov-17 06:59N 45°11' E 036°29'0 0.0
2017-Nov-17 06:26N 45°11' E 036°29'0 0.0
2017-Nov-17 05:59N 45°11' E 036°29'2 0.1
2017-Nov-15 23:51N 45°13' E 036°28'3 8.5
2017-Nov-15 23:31N 45°16' E 036°28'4 7.0
2017-Nov-15 23:00N 45°19' E 036°31'4 8.9
2017-Nov-15 22:30N 45°20' E 036°37'4 7.0
2017-Nov-15 22:00N 45°23' E 036°40'4 8.5
2017-Nov-15 21:31N 45°27' E 036°38'1 0.3
2017-Nov-15 16:46N 45°28' E 036°36'0 0.0
2017-Nov-15 12:54N 45°28' E 036°36'0 0.0
2017-Nov-15 12:18N 45°28' E 036°36'0 0.0
2017-Nov-15 11:41N 45°28' E 036°36'0 0.0
2017-Nov-15 11:23N 45°28' E 036°36'0 0.0
2017-Nov-15 10:50N 45°28' E 036°36'0 0.0
2017-Nov-15 10:08N 45°28' E 036°36'0 0.0
2017-Nov-15 09:53N 45°28' E 036°36'0 0.0
2017-Nov-15 07:59N 45°28' E 036°36'3 6.8
2017-Nov-15 07:30N 45°29' E 036°41'510.2
2017-Nov-15 07:01N 45°33' E 036°45'  
2017-Nov-09 00:44N 45°31' E 036°45'2 9.1
2017-Nov-09 00:30N 45°29' E 036°43'5 9.0
2017-Nov-09 00:00N 45°25' E 036°41'3 6.0
2017-Nov-08 23:30N 45°22' E 036°40'4 7.5
2017-Nov-08 23:00N 45°20' E 036°35'4 8.8
2017-Nov-08 22:30N 45°18' E 036°30'4 7.2
2017-Nov-08 22:00N 45°15' E 036°28'2 4.6
2017-Nov-08 21:30N 45°13' E 036°29'2 3.6
2017-Nov-08 21:00N 45°11' E 036°31'3 2.1
2017-Nov-08 19:45N 45°09' E 036°33'0 0.0
2017-Nov-08 19:27N 45°09' E 036°33'0 0.0
2017-Nov-08 18:57N 45°09' E 036°33'0 0.0
2017-Nov-08 18:30N 45°09' E 036°33'0 0.0
2017-Nov-08 17:42N 45°09' E 036°33'0 0.0
2017-Nov-08 17:27N 45°09' E 036°33'0 0.0
2017-Nov-08 17:00N 45°09' E 036°33'0 0.0
2017-Nov-08 16:27N 45°09' E 036°33'0 0.0
2017-Nov-08 15:51N 45°09' E 036°33'0 0.0
2017-Nov-08 15:21N 45°09' E 036°33'0 0.0
2017-Nov-08 14:57N 45°09' E 036°33'0 0.0
2017-Nov-08 14:30N 45°09' E 036°33'0 0.0
2017-Nov-08 14:00N 45°09' E 036°33'0 0.0
2017-Nov-08 13:18N 45°09' E 036°33'0 0.0
2017-Nov-08 12:57N 45°09' E 036°33'0 0.0
2017-Nov-08 12:27N 45°09' E 036°33'0 0.0
2017-Nov-08 11:51N 45°09' E 036°33'0 0.0
2017-Nov-08 11:30N 45°09' E 036°33'0 0.0
2017-Nov-08 10:57N 45°09' E 036°33'0 0.0
2017-Nov-08 10:30N 45°09' E 036°33'0 0.0
2017-Nov-08 09:54N 45°09' E 036°33'0 0.0
2017-Nov-08 09:30N 45°09' E 036°33'0 0.0
2017-Nov-08 08:48N 45°09' E 036°33'0 0.0
2017-Nov-08 08:30N 45°09' E 036°33'0 0.0
2017-Nov-08 08:00N 45°09' E 036°33'0 0.0
2017-Nov-08 07:18N 45°09' E 036°33'0 0.0
2017-Nov-08 07:00N 45°09' E 036°33'0 0.0
2017-Nov-08 06:27N 45°09' E 036°33'0 0.0
2017-Nov-08 05:54N 45°09' E 036°33'0 0.0
2017-Nov-08 05:30N 45°09' E 036°33'0 0.0
2017-Nov-08 04:30N 45°09' E 036°33'0 0.0
2017-Nov-08 03:57N 45°09' E 036°33'0 0.0
2017-Nov-08 03:24N 45°09' E 036°33'0 0.0
2017-Nov-08 03:00N 45°09' E 036°33'0 0.0
2017-Nov-08 01:51N 45°09' E 036°33'0 0.0
2017-Nov-08 01:30N 45°09' E 036°33'0 0.0
2017-Nov-08 00:54N 45°09' E 036°33'0 0.0
2017-Nov-08 00:27N 45°09' E 036°33'0 0.0
2017-Nov-07 23:57N 45°09' E 036°33'0 0.0
2017-Nov-07 23:15N 45°09' E 036°33'0 0.0
2017-Nov-07 22:57N 45°09' E 036°33'0 0.0
2017-Nov-07 22:30N 45°09' E 036°33'0 0.0
2017-Nov-07 22:00N 45°09' E 036°33'0 0.0
2017-Nov-07 21:30N 45°09' E 036°33'0 0.0
2017-Nov-07 21:00N 45°09' E 036°33'0 0.1
2017-Nov-07 20:25N 45°09' E 036°33'0 0.0
2017-Nov-07 19:34N 45°09' E 036°33'0 0.0
2017-Nov-07 19:19N 45°09' E 036°33'  
Track history (hours):
 
Tides and Currents Weather Stations Pressure Air Temp Water Temp Dewpoint Dewpoint Depression Visibility Wind Speed Wind Dir Waves Ship Positions

Rusich-7

Last reported at 2017-Nov-17 19:16 UTC. Time now 2017-Nov-22 07:35 UTC.
Position N 45°29' E 036°43'.

Length 128 m; draft 3.3 m.

Type: Cargo ship. MMSI: 273310950.

Date/timePositionNaut miles runAvg speedWind from/ knotsBaromVisibWave heightAir tempDewpointWater temp
2017-Nov-17 19:16N 45°29' E 036°43'2 9.1
2017-Nov-17 19:00N 45°27' E 036°42'5 9.5
2017-Nov-17 18:30N 45°22' E 036°40'4 7.6
2017-Nov-17 18:00N 45°20' E 036°36'5 9.6
2017-Nov-17 17:30N 45°18' E 036°29'4 7.5
2017-Nov-17 17:01N 45°15' E 036°28'4 7.7
2017-Nov-17 16:30N 45°11' E 036°29'0 0.1
2017-Nov-17 15:55N 45°11' E 036°29'0 0.0
2017-Nov-17 13:16N 45°11' E 036°29'0 0.0
2017-Nov-17 12:52N 45°11' E 036°29'0 0.0
2017-Nov-17 12:30N 45°11' E 036°29'0 0.0
2017-Nov-17 11:55N 45°11' E 036°29'0 0.0
2017-Nov-17 11:25N 45°11' E 036°29'0 0.0
2017-Nov-17 11:00N 45°11' E 036°29'0 0.0
2017-Nov-17 10:00N 45°11' E 036°29'0 0.0
2017-Nov-17 07:54N 45°11' E 036°29'0 0.0
2017-Nov-17 07:20N 45°11' E 036°29'0 0.0
2017-Nov-17 06:59N 45°11' E 036°29'0 0.0
2017-Nov-17 06:26N 45°11' E 036°29'0 0.0
2017-Nov-17 05:59N 45°11' E 036°29'2 0.1
2017-Nov-15 23:51N 45°13' E 036°28'3 8.5
2017-Nov-15 23:31N 45°16' E 036°28'4 7.0
2017-Nov-15 23:00N 45°19' E 036°31'4 8.9
2017-Nov-15 22:30N 45°20' E 036°37'4 7.0
2017-Nov-15 22:00N 45°23' E 036°40'4 8.5
2017-Nov-15 21:31N 45°27' E 036°38'1 0.3
2017-Nov-15 16:46N 45°28' E 036°36'0 0.0
2017-Nov-15 12:54N 45°28' E 036°36'0 0.0
2017-Nov-15 12:18N 45°28' E 036°36'0 0.0
2017-Nov-15 11:41N 45°28' E 036°36'0 0.0
2017-Nov-15 11:23N 45°28' E 036°36'0 0.0
2017-Nov-15 10:50N 45°28' E 036°36'0 0.0
2017-Nov-15 10:08N 45°28' E 036°36'0 0.0
2017-Nov-15 09:53N 45°28' E 036°36'0 0.0
2017-Nov-15 07:59N 45°28' E 036°36'3 6.8
2017-Nov-15 07:30N 45°29' E 036°41'510.2
2017-Nov-15 07:01N 45°33' E 036°45'  
2017-Nov-09 00:44N 45°31' E 036°45'2 9.1
2017-Nov-09 00:30N 45°29' E 036°43'5 9.0
2017-Nov-09 00:00N 45°25' E 036°41'3 6.0
2017-Nov-08 23:30N 45°22' E 036°40'4 7.5
2017-Nov-08 23:00N 45°20' E 036°35'4 8.8
2017-Nov-08 22:30N 45°18' E 036°30'4 7.2
2017-Nov-08 22:00N 45°15' E 036°28'2 4.6
2017-Nov-08 21:30N 45°13' E 036°29'2 3.6
2017-Nov-08 21:00N 45°11' E 036°31'3 2.1
2017-Nov-08 19:45N 45°09' E 036°33'0 0.0
2017-Nov-08 19:27N 45°09' E 036°33'0 0.0
2017-Nov-08 18:57N 45°09' E 036°33'0 0.0
2017-Nov-08 18:30N 45°09' E 036°33'0 0.0
2017-Nov-08 17:42N 45°09' E 036°33'0 0.0
2017-Nov-08 17:27N 45°09' E 036°33'0 0.0
2017-Nov-08 17:00N 45°09' E 036°33'0 0.0
2017-Nov-08 16:27N 45°09' E 036°33'0 0.0
2017-Nov-08 15:51N 45°09' E 036°33'0 0.0
2017-Nov-08 15:21N 45°09' E 036°33'0 0.0
2017-Nov-08 14:57N 45°09' E 036°33'0 0.0
2017-Nov-08 14:30N 45°09' E 036°33'0 0.0
2017-Nov-08 14:00N 45°09' E 036°33'0 0.0
2017-Nov-08 13:18N 45°09' E 036°33'0 0.0
2017-Nov-08 12:57N 45°09' E 036°33'0 0.0
2017-Nov-08 12:27N 45°09' E 036°33'0 0.0
2017-Nov-08 11:51N 45°09' E 036°33'0 0.0
2017-Nov-08 11:30N 45°09' E 036°33'0 0.0
2017-Nov-08 10:57N 45°09' E 036°33'0 0.0
2017-Nov-08 10:30N 45°09' E 036°33'0 0.0
2017-Nov-08 09:54N 45°09' E 036°33'0 0.0
2017-Nov-08 09:30N 45°09' E 036°33'0 0.0
2017-Nov-08 08:48N 45°09' E 036°33'0 0.0
2017-Nov-08 08:30N 45°09' E 036°33'0 0.0
2017-Nov-08 08:00N 45°09' E 036°33'0 0.0
2017-Nov-08 07:18N 45°09' E 036°33'0 0.0
2017-Nov-08 07:00N 45°09' E 036°33'0 0.0
2017-Nov-08 06:27N 45°09' E 036°33'0 0.0
2017-Nov-08 05:54N 45°09' E 036°33'0 0.0
2017-Nov-08 05:30N 45°09' E 036°33'0 0.0
2017-Nov-08 04:30N 45°09' E 036°33'0 0.0
2017-Nov-08 03:57N 45°09' E 036°33'0 0.0
2017-Nov-08 03:24N 45°09' E 036°33'0 0.0
2017-Nov-08 03:00N 45°09' E 036°33'0 0.0
2017-Nov-08 01:51N 45°09' E 036°33'0 0.0
2017-Nov-08 01:30N 45°09' E 036°33'0 0.0
2017-Nov-08 00:54N 45°09' E 036°33'0 0.0
2017-Nov-08 00:27N 45°09' E 036°33'0 0.0
2017-Nov-07 23:57N 45°09' E 036°33'0 0.0
2017-Nov-07 23:15N 45°09' E 036°33'0 0.0
2017-Nov-07 22:57N 45°09' E 036°33'0 0.0
2017-Nov-07 22:30N 45°09' E 036°33'0 0.0
2017-Nov-07 22:00N 45°09' E 036°33'0 0.0
2017-Nov-07 21:30N 45°09' E 036°33'0 0.0
2017-Nov-07 21:00N 45°09' E 036°33'0 0.1
2017-Nov-07 20:25N 45°09' E 036°33'0 0.0
2017-Nov-07 19:34N 45°09' E 036°33'0 0.0
2017-Nov-07 19:19N 45°09' E 036°33'  

Dump ship's entire track history